Time;durP1;ratioP1;P1;durP2;ratioP2;P2;SDS_P1;SDS_P2;PMS_P1;PMS_P2;Temp;Humidity;BMP_temperature;BMP_pressure;BME280_temperature;BME280_humidity;BME280_pressure;Samples;Min_cycle;Max_cycle;Signal;HPM_P1;HPM_P2
2024/01/17 00:01:26;;;;;;;3.85;2.55;;;;;;;;;;8223065;28;20062;-60
2024/01/17 00:05:26;;;;;;;5.75;2.63;;;;;;;;;;8219271;28;20133;-61
2024/01/17 00:09:27;;;;;;;6.32;3.10;;;;;;;;;;8221551;28;20115;-60
2024/01/17 00:13:27;;;;;;;5.03;3.30;;;;;;;;;;8224641;28;20023;-61
2024/01/17 00:17:27;;;;;;;6.45;3.00;;;;;;;;;;8222775;28;20042;-60
2024/01/17 00:21:27;;;;;;;6.32;3.13;;;;;;;;;;8222469;28;20022;-60
2024/01/17 00:25:28;;;;;;;5.83;3.27;;;;;;;;;;8221398;28;20912;-60
2024/01/17 00:29:28;;;;;;;7.57;4.30;;;;;;;;;;8223230;28;20687;-59
2024/01/17 00:33:28;;;;;;;7.75;3.58;;;;;;;;;;8223072;28;20038;-60
2024/01/17 00:37:28;;;;;;;7.40;3.45;;;;;;;;;;8220962;28;20033;-59
2024/01/17 00:41:28;;;;;;;8.07;3.13;;;;;;;;;;8218867;28;20022;-58
2024/01/17 00:45:28;;;;;;;8.05;2.97;;;;;;;;;;8226811;28;20042;-59
2024/01/17 00:49:28;;;;;;;3.58;2.45;;;;;;;;;;8225423;28;20938;-59
2024/01/17 00:53:30;;;;;;;6.75;2.60;;;;;;;;;;8227219;28;20029;-60
2024/01/17 00:57:30;;;;;;;3.53;1.80;;;;;;;;;;8231759;28;20117;-59
2024/01/17 01:01:30;;;;;;;2.35;1.80;;;;;;;;;;8236277;28;20085;-61
2024/01/17 01:05:30;;;;;;;3.55;1.80;;;;;;;;;;8233921;28;20383;-60
2024/01/17 01:09:30;;;;;;;14.75;2.30;;;;;;;;;;8235734;28;20026;-59
2024/01/17 01:13:31;;;;;;;3.37;2.00;;;;;;;;;;8235325;28;20095;-60
2024/01/17 01:17:31;;;;;;;5.72;2.20;;;;;;;;;;8232328;28;21113;-60
2024/01/17 01:21:31;;;;;;;3.22;1.85;;;;;;;;;;8231568;28;20026;-60
2024/01/17 01:25:31;;;;;;;6.57;2.42;;;;;;;;;;8232276;28;20030;-60
2024/01/17 01:29:32;;;;;;;5.15;2.30;;;;;;;;;;8227189;28;20013;-59
2024/01/17 01:33:32;;;;;;;3.78;2.03;;;;;;;;;;8230153;28;20037;-59
2024/01/17 01:37:32;;;;;;;5.50;2.00;;;;;;;;;;8232574;28;20693;-60
2024/01/17 01:41:32;;;;;;;6.05;2.88;;;;;;;;;;8231568;28;20449;-60
2024/01/17 01:45:33;;;;;;;7.57;3.50;;;;;;;;;;8237251;28;20035;-60
2024/01/17 01:49:33;;;;;;;9.85;3.70;;;;;;;;;;8229538;28;20462;-60
2024/01/17 01:53:34;;;;;;;6.43;3.15;;;;;;;;;;8233917;28;20026;-60
2024/01/17 01:57:39;;;;;;;7.38;3.90;;;;;;;;;;8232004;28;20479;-60
2024/01/17 02:01:39;;;;;;;6.30;3.83;;;;;;;;;;8228172;28;20161;-59
2024/01/17 02:05:40;;;;;;;6.57;3.88;;;;;;;;;;8227778;28;20558;-60
2024/01/17 02:09:40;;;;;;;6.53;4.13;;;;;;;;;;8225481;28;20144;-59
2024/01/17 02:13:40;;;;;;;10.95;4.15;;;;;;;;;;8225699;28;20273;-60
2024/01/17 02:17:42;;;;;;;7.43;3.20;;;;;;;;;;8221387;28;20038;-61
2024/01/17 02:21:42;;;;;;;8.25;3.45;;;;;;;;;;8224837;28;20036;-59
2024/01/17 02:25:42;;;;;;;5.10;2.90;;;;;;;;;;8228761;28;20152;-59
2024/01/17 02:29:45;;;;;;;4.07;2.55;;;;;;;;;;8217910;28;20033;-59
2024/01/17 02:33:45;;;;;;;6.90;3.35;;;;;;;;;;8215518;28;20044;-59
2024/01/17 02:37:45;;;;;;;6.85;3.33;;;;;;;;;;8220327;28;20118;-59
2024/01/17 02:41:46;;;;;;;10.23;3.90;;;;;;;;;;8223897;28;20029;-59
2024/01/17 02:45:46;;;;;;;8.80;4.05;;;;;;;;;;8229340;28;20284;-59
2024/01/17 02:49:46;;;;;;;7.75;4.10;;;;;;;;;;8231440;28;20030;-60
2024/01/17 02:53:47;;;;;;;10.10;4.97;;;;;;;;;;8235936;28;20140;-59
2024/01/17 02:57:47;;;;;;;11.48;5.60;;;;;;;;;;8225482;28;20533;-60
2024/01/17 03:01:48;;;;;;;7.40;4.78;;;;;;;;;;8224514;28;20030;-60
2024/01/17 03:05:48;;;;;;;8.35;5.03;;;;;;;;;;8229708;28;20053;-60
2024/01/17 03:09:48;;;;;;;7.30;4.82;;;;;;;;;;8234880;28;20030;-61
2024/01/17 03:13:48;;;;;;;10.75;5.03;;;;;;;;;;8235104;28;20029;-61
2024/01/17 03:17:49;;;;;;;8.50;5.07;;;;;;;;;;8233027;28;20589;-60
2024/01/17 03:21:50;;;;;;;11.23;6.20;;;;;;;;;;8229870;28;20273;-62
2024/01/17 03:25:50;;;;;;;8.35;5.45;;;;;;;;;;8231237;28;20033;-63
2024/01/17 03:29:51;;;;;;;9.13;5.80;;;;;;;;;;8231964;28;20364;-60
2024/01/17 03:33:51;;;;;;;9.43;6.03;;;;;;;;;;8230933;28;20080;-60
2024/01/17 03:37:51;;;;;;;11.77;6.38;;;;;;;;;;8227803;28;20285;-59
2024/01/17 03:41:51;;;;;;;10.70;6.53;;;;;;;;;;8231754;28;23018;-60
2024/01/17 03:45:53;;;;;;;15.40;7.20;;;;;;;;;;8225703;28;20034;-59
2024/01/17 03:49:53;;;;;;;10.60;6.30;;;;;;;;;;8221829;28;20025;-59
2024/01/17 03:53:54;;;;;;;11.45;6.03;;;;;;;;;;8218659;28;20030;-60
2024/01/17 03:57:54;;;;;;;8.13;5.20;;;;;;;;;;8223695;28;22566;-60
2024/01/17 04:01:55;;;;;;;9.23;5.50;;;;;;;;;;8224798;28;20103;-60
2024/01/17 04:05:55;;;;;;;9.60;4.90;;;;;;;;;;8219357;28;20283;-59
2024/01/17 04:09:55;;;;;;;11.10;5.72;;;;;;;;;;8217802;28;20029;-59
2024/01/17 04:13:56;;;;;;;8.35;5.32;;;;;;;;;;8220490;28;20037;-59
2024/01/17 04:17:56;;;;;;;8.93;5.55;;;;;;;;;;8222909;28;20041;-59
2024/01/17 04:21:57;;;;;;;8.90;5.65;;;;;;;;;;8225548;28;21521;-60
2024/01/17 04:25:57;;;;;;;11.25;5.90;;;;;;;;;;8232093;28;22107;-60
2024/01/17 04:29:58;;;;;;;11.50;6.73;;;;;;;;;;8235397;28;20450;-60
2024/01/17 04:34:01;;;;;;;11.75;6.28;;;;;;;;;;8236541;28;20280;-60
2024/01/17 04:38:03;;;;;;;15.98;8.25;;;;;;;;;;8237798;28;20018;-59
2024/01/17 04:42:03;;;;;;;13.68;7.57;;;;;;;;;;8233639;28;20026;-60
2024/01/17 04:46:04;;;;;;;12.25;7.20;;;;;;;;;;8237678;28;20066;-59
2024/01/17 04:50:04;;;;;;;12.95;7.10;;;;;;;;;;8236900;28;20038;-60
2024/01/17 04:54:04;;;;;;;14.47;7.83;;;;;;;;;;8236181;28;20030;-58
2024/01/17 04:58:04;;;;;;;14.65;7.13;;;;;;;;;;8227858;28;20297;-58
2024/01/17 05:02:05;;;;;;;17.80;8.55;;;;;;;;;;8226651;28;20777;-59
2024/01/17 05:06:05;;;;;;;19.15;8.25;;;;;;;;;;8231225;28;20024;-59
2024/01/17 05:10:05;;;;;;;15.77;8.80;;;;;;;;;;8226194;28;20694;-59
2024/01/17 05:14:06;;;;;;;17.17;9.02;;;;;;;;;;8227343;28;20030;-60
2024/01/17 05:18:07;;;;;;;20.60;12.55;;;;;;;;;;8227188;28;20458;-59
2024/01/17 05:22:09;;;;;;;15.52;9.90;;;;;;;;;;8226347;28;20088;-59
2024/01/17 05:26:10;;;;;;;15.02;9.05;;;;;;;;;;8226084;28;20018;-59
2024/01/17 05:30:11;;;;;;;20.17;11.98;;;;;;;;;;8226200;28;20028;-59
2024/01/17 05:34:11;;;;;;;26.80;15.07;;;;;;;;;;8226252;28;20029;-58
2024/01/17 05:38:12;;;;;;;19.10;11.77;;;;;;;;;;8221513;28;20033;-59
2024/01/17 05:42:12;;;;;;;16.77;10.33;;;;;;;;;;8225089;28;20065;-59
2024/01/17 05:46:12;;;;;;;16.05;10.52;;;;;;;;;;8225664;28;20375;-59
2024/01/17 05:50:12;;;;;;;21.75;11.65;;;;;;;;;;8227785;28;20030;-59
2024/01/17 05:54:13;;;;;;;23.63;12.13;;;;;;;;;;8227583;28;20022;-60
2024/01/17 05:58:13;;;;;;;16.10;9.38;;;;;;;;;;8223847;28;20293;-58
2024/01/17 06:02:13;;;;;;;17.00;8.98;;;;;;;;;;8224017;28;20034;-59
2024/01/17 06:06:13;;;;;;;14.10;8.00;;;;;;;;;;8224178;28;20054;-58
2024/01/17 06:10:14;;;;;;;19.10;8.90;;;;;;;;;;8221482;28;20088;-60
2024/01/17 06:14:14;;;;;;;13.48;8.45;;;;;;;;;;8224635;28;20022;-59
2024/01/17 06:18:14;;;;;;;25.30;12.38;;;;;;;;;;8221613;28;20142;-60
2024/01/17 06:22:18;;;;;;;16.33;9.43;;;;;;;;;;8222572;28;20023;-59
2024/01/17 06:26:18;;;;;;;12.80;8.48;;;;;;;;;;8226221;28;20428;-59
2024/01/17 06:30:19;;;;;;;15.43;9.43;;;;;;;;;;8223587;28;20060;-59
2024/01/17 06:34:19;;;;;;;12.88;8.52;;;;;;;;;;8220887;28;20022;-59
2024/01/17 06:38:19;;;;;;;14.23;8.88;;;;;;;;;;8227958;28;20034;-59
2024/01/17 06:42:20;;;;;;;18.85;9.52;;;;;;;;;;8223771;28;20273;-59
2024/01/17 06:46:20;;;;;;;17.45;9.07;;;;;;;;;;8231429;28;20042;-59
2024/01/17 06:50:20;;;;;;;15.50;9.73;;;;;;;;;;8225007;28;20280;-59
2024/01/17 06:54:20;;;;;;;16.90;9.77;;;;;;;;;;8225694;28;20109;-59
2024/01/17 06:58:20;;;;;;;19.65;10.65;;;;;;;;;;8224412;28;20037;-59
2024/01/17 07:02:21;;;;;;;16.33;10.15;;;;;;;;;;8224171;28;20038;-59
2024/01/17 07:06:21;;;;;;;16.13;10.90;;;;;;;;;;8226618;28;20068;-58
2024/01/17 07:10:23;;;;;;;21.02;10.27;;;;;;;;;;8227144;28;20019;-59
2024/01/17 07:14:24;;;;;;;18.35;10.38;;;;;;;;;;8228751;28;20037;-60
2024/01/17 07:18:24;;;;;;;18.85;10.93;;;;;;;;;;8222262;28;20041;-61
2024/01/17 07:22:24;;;;;;;18.63;11.07;;;;;;;;;;8224709;28;20035;-58
2024/01/17 07:26:24;;;;;;;18.63;11.20;;;;;;;;;;8224659;28;20029;-59
2024/01/17 07:30:26;;;;;;;17.40;10.18;;;;;;;;;;8222221;28;20257;-58
2024/01/17 07:34:26;;;;;;;18.02;9.85;;;;;;;;;;8220801;28;20026;-58
2024/01/17 07:38:26;;;;;;;15.90;10.05;;;;;;;;;;8216681;28;20037;-59
2024/01/17 07:42:26;;;;;;;19.73;10.40;;;;;;;;;;8225453;28;20026;-60
2024/01/17 07:46:27;;;;;;;18.80;10.73;;;;;;;;;;8220218;28;20288;-61
2024/01/17 07:50:28;;;;;;;22.63;12.25;;;;;;;;;;8221103;28;20428;-59
2024/01/17 07:54:28;;;;;;;24.17;11.88;;;;;;;;;;8219620;28;20034;-60
2024/01/17 07:58:28;;;;;;;21.85;13.65;;;;;;;;;;8217477;28;20030;-59
2024/01/17 08:02:28;;;;;;;18.30;11.68;;;;;;;;;;8214983;28;20041;-59
2024/01/17 08:06:29;;;;;;;20.67;12.60;;;;;;;;;;8232870;28;20022;-59
2024/01/17 08:10:30;;;;;;;19.73;11.98;;;;;;;;;;8224579;28;20308;-59
2024/01/17 08:14:30;;;;;;;21.02;11.82;;;;;;;;;;8223076;28;20282;-59
2024/01/17 08:18:30;;;;;;;21.65;9.73;;;;;;;;;;8214580;28;20078;-59
2024/01/17 08:22:30;;;;;;;18.50;9.68;;;;;;;;;;8218537;28;20026;-59
2024/01/17 08:26:32;;;;;;;17.83;10.13;;;;;;;;;;8219882;28;20022;-60
2024/01/17 08:30:32;;;;;;;16.88;10.15;;;;;;;;;;8218785;28;20046;-59
2024/01/17 08:34:33;;;;;;;14.02;9.40;;;;;;;;;;8224261;28;20026;-60
2024/01/17 08:38:34;;;;;;;14.98;9.30;;;;;;;;;;8217983;28;20578;-60
2024/01/17 08:42:35;;;;;;;15.63;10.88;;;;;;;;;;8220924;28;20109;-60
2024/01/17 08:46:41;;;;;;;15.02;9.82;;;;;;;;;;8226745;28;20038;-59
2024/01/17 08:50:41;;;;;;;18.30;11.70;;;;;;;;;;8220323;28;20032;-59
2024/01/17 08:54:41;;;;;;;21.83;12.82;;;;;;;;;;8223212;28;20881;-58
2024/01/17 08:58:42;;;;;;;20.80;12.65;;;;;;;;;;8221956;28;20116;-58
2024/01/17 09:02:42;;;;;;;22.13;12.75;;;;;;;;;;8207592;28;20032;-58
2024/01/17 09:06:42;;;;;;;21.00;12.15;;;;;;;;;;8212534;28;20026;-58
2024/01/17 09:10:42;;;;;;;24.35;13.45;;;;;;;;;;8219274;28;20026;-58
2024/01/17 09:14:43;;;;;;;19.83;12.05;;;;;;;;;;8217755;28;20062;-57
2024/01/17 09:18:43;;;;;;;16.70;10.77;;;;;;;;;;8220384;28;20560;-59
2024/01/17 09:22:44;;;;;;;17.88;11.45;;;;;;;;;;8220401;28;20026;-59
2024/01/17 09:26:44;;;;;;;17.70;10.43;;;;;;;;;;8224591;28;20057;-59
2024/01/17 09:30:44;;;;;;;19.20;11.73;;;;;;;;;;8224460;28;20053;-58
2024/01/17 09:34:47;;;;;;;18.55;12.65;;;;;;;;;;8227726;28;20026;-59
2024/01/17 09:38:47;;;;;;;28.05;14.85;;;;;;;;;;8220946;28;20026;-59
2024/01/17 09:42:48;;;;;;;19.25;11.63;;;;;;;;;;8223645;28;20036;-58
2024/01/17 09:46:49;;;;;;;28.50;13.73;;;;;;;;;;8227186;28;20117;-58
2024/01/17 09:50:50;;;;;;;126.68;16.90;;;;;;;;;;8224513;28;20826;-60
2024/01/17 09:54:51;;;;;;;62.00;15.05;;;;;;;;;;8225839;28;20112;-60
2024/01/17 09:58:52;;;;;;;376.27;25.23;;;;;;;;;;8224204;28;20109;-59
2024/01/17 10:02:54;;;;;;;281.23;19.45;;;;;;;;;;8213918;28;20038;-59
2024/01/17 10:06:57;;;;;;;353.77;20.80;;;;;;;;;;8210037;28;20378;-59
2024/01/17 10:10:57;;;;;;;167.18;15.15;;;;;;;;;;8208308;28;20080;-60
2024/01/17 10:14:57;;;;;;;221.68;18.83;;;;;;;;;;8206707;28;20030;-59
2024/01/17 10:18:58;;;;;;;100.28;15.18;;;;;;;;;;8202584;28;20038;-59
2024/01/17 10:22:59;;;;;;;289.48;21.33;;;;;;;;;;8206892;28;20053;-59
2024/01/17 10:27:06;;;;;;;274.23;22.02;;;;;;;;;;8207484;28;20037;-58
2024/01/17 10:31:06;;;;;;;325.02;21.70;;;;;;;;;;8208916;28;20046;-59
2024/01/17 10:35:07;;;;;;;150.02;19.42;;;;;;;;;;8217879;28;20029;-58
2024/01/17 10:39:11;;;;;;;286.23;23.10;;;;;;;;;;8217368;28;20691;-59
2024/01/17 10:43:13;;;;;;;138.38;17.92;;;;;;;;;;8221202;28;20017;-59
2024/01/17 10:47:13;;;;;;;122.43;17.67;;;;;;;;;;8216634;28;20315;-59
2024/01/17 10:51:18;;;;;;;95.97;17.25;;;;;;;;;;8218628;28;20069;-58
2024/01/17 10:55:21;;;;;;;48.35;13.15;;;;;;;;;;8219658;28;20078;-59
2024/01/17 10:59:21;;;;;;;179.88;18.25;;;;;;;;;;8217475;28;20458;-59
2024/01/17 11:03:24;;;;;;;26.17;11.32;;;;;;;;;;8220155;28;20030;-58
2024/01/17 11:07:25;;;;;;;31.42;11.82;;;;;;;;;;8224539;28;20026;-58
2024/01/17 11:11:25;;;;;;;40.07;11.70;;;;;;;;;;8220269;28;20036;-57
2024/01/17 11:15:27;;;;;;;26.45;10.93;;;;;;;;;;8219903;28;20272;-59
2024/01/17 11:19:28;;;;;;;15.30;10.68;;;;;;;;;;8219417;28;20041;-58
2024/01/17 11:23:40;;;;;;;26.70;11.43;;;;;;;;;;8219155;28;20022;-59
2024/01/17 11:27:49;;;;;;;55.22;11.70;;;;;;;;;;8218707;28;20026;-60
2024/01/17 11:31:49;;;;;;;63.47;12.38;;;;;;;;;;8220588;28;20038;-59
2024/01/17 11:35:51;;;;;;;114.10;12.70;;;;;;;;;;8218553;28;20806;-61
2024/01/17 11:39:55;;;;;;;203.80;16.40;;;;;;;;;;8210059;28;20033;-59
2024/01/17 11:43:55;;;;;;;56.25;10.38;;;;;;;;;;8219535;28;20353;-60
2024/01/17 11:47:55;;;;;;;580.30;24.67;;;;;;;;;;8220029;28;20045;-60
2024/01/17 11:51:57;;;;;;;268.05;14.50;;;;;;;;;;8219733;28;20300;-59
2024/01/17 11:55:58;;;;;;;409.35;18.23;;;;;;;;;;8216886;28;20062;-58
2024/01/17 12:00:06;;;;;;;420.45;19.38;;;;;;;;;;8211912;28;20050;-59
2024/01/17 12:04:11;;;;;;;292.00;15.98;;;;;;;;;;8206647;28;20121;-57
2024/01/17 12:08:11;;;;;;;169.02;12.13;;;;;;;;;;8216343;28;20033;-57
2024/01/17 12:12:19;;;;;;;253.63;16.23;;;;;;;;;;8216613;28;20130;-57
2024/01/17 12:16:23;;;;;;;642.70;27.00;;;;;;;;;;8215845;28;20109;-58
2024/01/17 12:20:24;;;;;;;555.63;24.15;;;;;;;;;;8215378;28;20030;-61
2024/01/17 12:24:25;;;;;;;479.98;23.58;;;;;;;;;;8221061;28;20053;-57
2024/01/17 12:28:28;;;;;;;543.00;25.67;;;;;;;;;;8218534;28;20563;-58
2024/01/17 12:32:28;;;;;;;503.27;29.30;;;;;;;;;;8218044;28;20042;-58
2024/01/17 12:36:30;;;;;;;424.95;25.63;;;;;;;;;;8218954;28;20045;-57
2024/01/17 12:40:30;;;;;;;225.88;19.23;;;;;;;;;;8214749;28;20060;-57
2024/01/17 12:44:31;;;;;;;76.77;14.43;;;;;;;;;;8217277;28;20034;-57
2024/01/17 12:48:31;;;;;;;36.08;9.57;;;;;;;;;;8214441;28;20356;-55
2024/01/17 12:52:31;;;;;;;49.33;9.95;;;;;;;;;;8221426;28;20621;-58
2024/01/17 12:56:32;;;;;;;25.63;7.32;;;;;;;;;;8224433;28;20712;-57
2024/01/17 13:00:33;;;;;;;115.60;15.45;;;;;;;;;;8222691;28;20045;-57
2024/01/17 13:04:33;;;;;;;156.75;10.85;;;;;;;;;;8222086;28;20140;-58
2024/01/17 13:08:33;;;;;;;68.78;9.82;;;;;;;;;;8223354;28;20036;-58
2024/01/17 13:12:33;;;;;;;308.77;17.83;;;;;;;;;;8222580;28;20140;-60
2024/01/17 13:16:34;;;;;;;433.58;21.00;;;;;;;;;;8222215;28;20070;-60
2024/01/17 13:20:34;;;;;;;485.67;25.80;;;;;;;;;;8225243;28;20694;-59
2024/01/17 13:24:34;;;;;;;405.83;20.48;;;;;;;;;;8220316;28;20280;-59
2024/01/17 13:28:35;;;;;;;354.20;16.52;;;;;;;;;;8221812;28;20026;-60
2024/01/17 13:32:35;;;;;;;295.63;14.27;;;;;;;;;;8223799;28;20038;-58
2024/01/17 13:36:36;;;;;;;239.37;14.97;;;;;;;;;;8219952;28;20068;-58
2024/01/17 13:40:39;;;;;;;373.60;17.23;;;;;;;;;;8223988;28;20284;-58
2024/01/17 13:44:40;;;;;;;175.15;11.20;;;;;;;;;;8222897;28;20266;-59
2024/01/17 13:48:40;;;;;;;295.75;13.70;;;;;;;;;;8209967;28;20049;-57
2024/01/17 13:52:46;;;;;;;244.45;11.75;;;;;;;;;;8218609;28;20643;-57
2024/01/17 13:56:47;;;;;;;235.95;10.98;;;;;;;;;;8206495;28;20464;-56
2024/01/17 14:00:48;;;;;;;584.35;21.67;;;;;;;;;;8207049;28;20121;-57
2024/01/17 14:04:48;;;;;;;872.75;32.83;;;;;;;;;;8209075;28;20349;-57
2024/01/17 14:08:48;;;;;;;468.73;19.65;;;;;;;;;;8211554;28;20161;-58
2024/01/17 14:12:49;;;;;;;656.13;27.08;;;;;;;;;;8209442;28;20070;-57
2024/01/17 14:16:49;;;;;;;432.27;17.83;;;;;;;;;;8208687;28;20048;-57
2024/01/17 14:20:49;;;;;;;106.10;6.90;;;;;;;;;;8211051;28;20765;-58
2024/01/17 14:24:50;;;;;;;201.15;9.98;;;;;;;;;;8203633;28;20080;-59
2024/01/17 14:28:50;;;;;;;600.67;22.58;;;;;;;;;;8210199;28;20019;-56
2024/01/17 14:32:50;;;;;;;334.15;14.80;;;;;;;;;;8211212;28;20409;-59
2024/01/17 14:36:50;;;;;;;56.42;11.38;;;;;;;;;;8203259;28;20104;-58
2024/01/17 14:40:50;;;;;;;386.73;16.02;;;;;;;;;;8209423;28;20032;-60
2024/01/17 14:44:51;;;;;;;139.87;8.57;;;;;;;;;;8208687;28;20250;-60
2024/01/17 14:48:51;;;;;;;92.70;7.15;;;;;;;;;;8211790;28;20625;-61
2024/01/17 14:52:51;;;;;;;327.25;14.80;;;;;;;;;;8208890;28;20025;-61
2024/01/17 14:56:53;;;;;;;398.50;16.27;;;;;;;;;;8211561;28;21932;-61
2024/01/17 15:00:53;;;;;;;218.07;10.05;;;;;;;;;;8214395;28;20150;-59
2024/01/17 15:04:53;;;;;;;382.63;15.95;;;;;;;;;;8215016;28;20579;-61
2024/01/17 15:08:53;;;;;;;345.58;13.85;;;;;;;;;;8210514;28;20581;-59
2024/01/17 15:12:54;;;;;;;743.10;26.75;;;;;;;;;;8210157;28;20143;-60
2024/01/17 15:17:01;;;;;;;518.17;20.42;;;;;;;;;;8205353;28;20402;-60
2024/01/17 15:21:02;;;;;;;351.65;15.65;;;;;;;;;;8210118;28;20118;-60
2024/01/17 15:25:03;;;;;;;675.70;26.85;;;;;;;;;;8207227;28;20057;-59
2024/01/17 15:29:03;;;;;;;567.78;24.27;;;;;;;;;;8207306;28;20105;-58
2024/01/17 15:33:03;;;;;;;320.63;15.60;;;;;;;;;;8209424;28;20042;-59
2024/01/17 15:37:04;;;;;;;773.00;28.40;;;;;;;;;;8201184;28;20240;-57
2024/01/17 15:41:05;;;;;;;676.22;28.98;;;;;;;;;;8212699;28;20925;-59
2024/01/17 15:45:07;;;;;;;269.92;13.05;;;;;;;;;;8218490;28;20572;-60
2024/01/17 15:49:08;;;;;;;398.85;18.48;;;;;;;;;;8217413;28;20561;-59
2024/01/17 15:53:08;;;;;;;336.33;22.58;;;;;;;;;;8214284;28;20034;-59
2024/01/17 15:57:08;;;;;;;141.68;10.93;;;;;;;;;;8210712;28;20034;-59
2024/01/17 16:01:09;;;;;;;104.60;9.07;;;;;;;;;;8204135;28;20502;-60
2024/01/17 16:05:09;;;;;;;163.35;10.85;;;;;;;;;;8196374;28;20029;-60
2024/01/17 16:09:11;;;;;;;202.32;12.55;;;;;;;;;;8214748;28;20021;-59
2024/01/17 16:13:12;;;;;;;207.77;13.27;;;;;;;;;;8216072;28;20112;-59
2024/01/17 16:17:12;;;;;;;99.28;9.75;;;;;;;;;;8216897;28;20039;-59
2024/01/17 16:21:12;;;;;;;517.63;23.77;;;;;;;;;;8213950;28;20053;-58
2024/01/17 16:25:13;;;;;;;63.10;8.38;;;;;;;;;;8196773;28;20125;-59
2024/01/17 16:29:13;;;;;;;106.55;9.30;;;;;;;;;;8204890;28;20463;-59
2024/01/17 16:33:13;;;;;;;278.55;16.15;;;;;;;;;;8214235;28;20074;-59
2024/01/17 16:37:13;;;;;;;260.40;14.83;;;;;;;;;;8217611;28;20076;-59
2024/01/17 16:41:14;;;;;;;64.00;9.52;;;;;;;;;;8216822;28;20279;-59
2024/01/17 16:45:14;;;;;;;148.23;11.90;;;;;;;;;;8202608;28;20033;-60
2024/01/17 16:49:15;;;;;;;67.63;8.60;;;;;;;;;;8207658;28;20053;-59
2024/01/17 16:53:15;;;;;;;86.45;10.90;;;;;;;;;;8201492;28;20738;-59
2024/01/17 16:57:15;;;;;;;103.53;10.38;;;;;;;;;;8188796;28;20018;-59
2024/01/17 17:01:15;;;;;;;12.43;7.20;;;;;;;;;;8196524;28;20030;-59
2024/01/17 17:05:15;;;;;;;8.82;6.75;;;;;;;;;;8190470;28;20023;-59
2024/01/17 17:09:16;;;;;;;41.67;7.72;;;;;;;;;;8196098;28;20132;-59
2024/01/17 17:13:16;;;;;;;10.95;6.95;;;;;;;;;;8205283;28;20038;-59
2024/01/17 17:17:16;;;;;;;15.07;5.85;;;;;;;;;;8203970;28;20057;-60
2024/01/17 17:21:17;;;;;;;17.63;7.18;;;;;;;;;;8206439;28;20495;-60
2024/01/17 17:25:17;;;;;;;7.10;5.72;;;;;;;;;;8195888;28;20025;-60
2024/01/17 17:29:17;;;;;;;8.23;6.55;;;;;;;;;;8203996;28;20061;-60
2024/01/17 17:33:18;;;;;;;7.15;5.28;;;;;;;;;;8209639;28;20038;-60
2024/01/17 17:37:19;;;;;;;5.30;4.43;;;;;;;;;;8200351;28;20813;-61
2024/01/17 17:41:20;;;;;;;4.93;4.10;;;;;;;;;;8199380;28;20521;-61
2024/01/17 17:45:20;;;;;;;5.15;4.07;;;;;;;;;;8197182;28;20424;-59
2024/01/17 17:49:20;;;;;;;5.85;3.92;;;;;;;;;;8201881;28;20352;-60
2024/01/17 17:53:21;;;;;;;5.90;4.78;;;;;;;;;;8205402;28;20022;-58
2024/01/17 17:57:21;;;;;;;3.63;3.33;;;;;;;;;;8210398;28;20030;-56
2024/01/17 18:01:21;;;;;;;4.97;3.75;;;;;;;;;;8205423;28;20255;-58
2024/01/17 18:05:21;;;;;;;4.37;3.83;;;;;;;;;;8204542;28;20018;-59
2024/01/17 18:09:22;;;;;;;4.63;4.00;;;;;;;;;;8213073;28;20287;-58
2024/01/17 18:13:23;;;;;;;5.95;4.60;;;;;;;;;;8216983;28;20025;-57
2024/01/17 18:17:23;;;;;;;8.50;5.82;;;;;;;;;;8212227;28;20038;-58
2024/01/17 18:21:23;;;;;;;3.93;3.30;;;;;;;;;;8222787;28;20409;-58
2024/01/17 18:25:23;;;;;;;3.17;2.80;;;;;;;;;;8208552;28;20285;-59
2024/01/17 18:29:25;;;;;;;7.80;3.35;;;;;;;;;;8208193;28;20606;-58
2024/01/17 18:33:25;;;;;;;3.53;3.17;;;;;;;;;;8208657;28;20100;-57
2024/01/17 18:37:25;;;;;;;3.72;3.33;;;;;;;;;;8209300;28;20379;-58
2024/01/17 18:41:26;;;;;;;3.40;2.97;;;;;;;;;;8207490;28;20029;-63
2024/01/17 18:45:26;;;;;;;5.20;3.95;;;;;;;;;;8207833;28;20301;-58
2024/01/17 18:49:28;;;;;;;4.97;3.17;;;;;;;;;;8206135;28;20510;-59
2024/01/17 18:53:28;;;;;;;4.03;3.58;;;;;;;;;;8207427;28;20144;-57
2024/01/17 18:57:29;;;;;;;5.47;3.50;;;;;;;;;;8209143;28;20547;-60
2024/01/17 19:01:32;;;;;;;6.95;4.38;;;;;;;;;;8203868;28;20308;-58
2024/01/17 19:05:33;;;;;;;5.78;4.22;;;;;;;;;;8203971;28;20292;-60
2024/01/17 19:09:34;;;;;;;5.80;4.10;;;;;;;;;;8202794;28;20026;-61
2024/01/17 19:13:36;;;;;;;5.03;3.20;;;;;;;;;;8207828;28;20414;-61
2024/01/17 19:17:36;;;;;;;11.48;4.78;;;;;;;;;;8207114;28;20593;-59
2024/01/17 19:21:36;;;;;;;9.30;4.63;;;;;;;;;;8205329;28;20026;-60
2024/01/17 19:25:36;;;;;;;21.55;7.80;;;;;;;;;;8208698;28;20026;-59
2024/01/17 19:29:36;;;;;;;11.55;4.80;;;;;;;;;;8216142;28;20345;-60
2024/01/17 19:33:36;;;;;;;13.82;5.63;;;;;;;;;;8208093;28;20045;-60
2024/01/17 19:37:37;;;;;;;21.95;7.50;;;;;;;;;;8203867;28;20638;-61
2024/01/17 19:41:38;;;;;;;7.95;3.60;;;;;;;;;;8208541;28;20463;-61
2024/01/17 19:45:38;;;;;;;22.83;7.78;;;;;;;;;;8208301;28;20112;-60
2024/01/17 19:49:38;;;;;;;14.10;6.07;;;;;;;;;;8204906;28;20172;-60
2024/01/17 19:53:39;;;;;;;13.73;5.63;;;;;;;;;;8205692;28;20370;-60
2024/01/17 19:57:40;;;;;;;10.05;4.60;;;;;;;;;;8205165;28;20570;-60
2024/01/17 20:01:40;;;;;;;8.43;4.28;;;;;;;;;;8203924;28;20485;-59
2024/01/17 20:05:40;;;;;;;8.82;4.55;;;;;;;;;;8207766;28;20048;-59
2024/01/17 20:09:44;;;;;;;9.07;4.80;;;;;;;;;;8198959;28;20510;-60
2024/01/17 20:13:45;;;;;;;8.00;3.95;;;;;;;;;;8204620;28;20831;-59
2024/01/17 20:17:45;;;;;;;5.65;3.63;;;;;;;;;;8193787;28;20049;-59
2024/01/17 20:21:46;;;;;;;3.67;2.10;;;;;;;;;;8200527;28;20518;-57
2024/01/17 20:25:46;;;;;;;6.00;2.85;;;;;;;;;;8205149;28;20057;-59
2024/01/17 20:29:46;;;;;;;1.92;1.50;;;;;;;;;;8203059;28;20223;-60
2024/01/17 20:33:46;;;;;;;1.73;1.58;;;;;;;;;;8205746;28;20774;-60
2024/01/17 20:37:46;;;;;;;1.20;1.10;;;;;;;;;;8205550;28;20022;-58
2024/01/17 20:41:46;;;;;;;1.30;1.20;;;;;;;;;;8207814;28;20210;-59
2024/01/17 20:45:47;;;;;;;0.77;0.77;;;;;;;;;;8203422;28;20275;-59
2024/01/17 20:49:47;;;;;;;0.90;0.90;;;;;;;;;;8204235;28;20070;-58
2024/01/17 20:53:47;;;;;;;0.70;0.70;;;;;;;;;;8197658;28;20026;-58
2024/01/17 20:57:47;;;;;;;1.25;0.70;;;;;;;;;;8203434;28;20039;-58
2024/01/17 21:01:48;;;;;;;0.90;0.90;;;;;;;;;;8199465;28;20151;-58
2024/01/17 21:05:48;;;;;;;1.10;1.05;;;;;;;;;;8199233;28;20026;-59
2024/01/17 21:09:48;;;;;;;2.20;1.02;;;;;;;;;;8196373;28;20582;-59
2024/01/17 21:13:48;;;;;;;1.10;1.00;;;;;;;;;;8209692;28;20480;-58
2024/01/17 21:17:48;;;;;;;0.80;0.80;;;;;;;;;;8204635;28;20800;-59
2024/01/17 21:21:48;;;;;;;0.80;0.80;;;;;;;;;;8210690;28;20029;-60
2024/01/17 21:25:49;;;;;;;0.80;0.80;;;;;;;;;;8211763;28;20472;-59
2024/01/17 21:29:49;;;;;;;1.15;0.90;;;;;;;;;;8215406;28;20140;-59
2024/01/17 21:33:49;;;;;;;0.88;0.88;;;;;;;;;;8211667;28;20473;-59
2024/01/17 21:37:49;;;;;;;0.73;0.73;;;;;;;;;;8211058;28;20041;-59
2024/01/17 21:41:51;;;;;;;0.70;0.70;;;;;;;;;;8208242;28;20884;-59
2024/01/17 21:45:51;;;;;;;0.93;0.90;;;;;;;;;;8208309;28;20281;-58
2024/01/17 21:49:51;;;;;;;0.93;0.90;;;;;;;;;;8217820;28;20387;-59
2024/01/17 21:53:52;;;;;;;1.10;1.00;;;;;;;;;;8222039;28;20494;-57
2024/01/17 21:57:52;;;;;;;0.90;0.90;;;;;;;;;;8217271;28;20585;-58
2024/01/17 22:01:52;;;;;;;0.80;0.80;;;;;;;;;;8213821;28;20449;-59
2024/01/17 22:05:52;;;;;;;1.10;1.10;;;;;;;;;;8217130;28;20558;-58
2024/01/17 22:09:52;;;;;;;1.00;1.00;;;;;;;;;;8215618;28;20125;-58
2024/01/17 22:13:53;;;;;;;0.90;0.90;;;;;;;;;;8224177;28;20508;-57
2024/01/17 22:17:53;;;;;;;1.13;1.13;;;;;;;;;;8229422;28;20081;-58
2024/01/17 22:21:53;;;;;;;0.90;0.90;;;;;;;;;;8227126;28;20662;-58
2024/01/17 22:25:55;;;;;;;1.17;1.08;;;;;;;;;;8228376;28;21885;-58
2024/01/17 22:29:55;;;;;;;1.00;1.00;;;;;;;;;;8216274;28;20433;-59
2024/01/17 22:33:55;;;;;;;2.70;1.20;;;;;;;;;;8213433;28;20088;-59
2024/01/17 22:37:55;;;;;;;1.30;1.20;;;;;;;;;;8214597;28;20495;-63
2024/01/17 22:41:56;;;;;;;1.17;1.00;;;;;;;;;;8220309;28;20390;-58
2024/01/17 22:45:56;;;;;;;2.25;1.20;;;;;;;;;;8219936;28;20400;-57
2024/01/17 22:49:56;;;;;;;1.30;1.20;;;;;;;;;;8219862;28;21697;-58
2024/01/17 22:53:56;;;;;;;1.00;1.00;;;;;;;;;;8220802;28;20233;-58
2024/01/17 22:57:56;;;;;;;1.80;1.00;;;;;;;;;;8216672;28;20921;-60
2024/01/17 23:01:57;;;;;;;0.95;0.90;;;;;;;;;;8207306;28;20081;-60
2024/01/17 23:05:57;;;;;;;1.17;1.10;;;;;;;;;;8203221;28;20057;-60
2024/01/17 23:09:57;;;;;;;1.08;1.00;;;;;;;;;;8211430;28;20029;-60
2024/01/17 23:13:57;;;;;;;0.90;0.90;;;;;;;;;;8210117;28;20635;-60
2024/01/17 23:17:57;;;;;;;0.93;0.93;;;;;;;;;;8208863;28;20077;-58
2024/01/17 23:21:58;;;;;;;1.20;1.10;;;;;;;;;;8212511;28;20068;-61
2024/01/17 23:25:58;;;;;;;1.02;1.02;;;;;;;;;;8212099;28;20380;-60
2024/01/17 23:29:58;;;;;;;1.20;1.10;;;;;;;;;;8206350;28;20120;-59
2024/01/17 23:33:58;;;;;;;0.90;0.90;;;;;;;;;;8205535;28;20116;-60